sensor_id;sensor_type;location;lat;lon;timestamp;temperature;humidity
5806;DHT22;2929;50.810;8.342;2023-02-16T00:01:19;0.30;99.90
5806;DHT22;2929;50.810;8.342;2023-02-16T00:03:47;0.30;99.90
5806;DHT22;2929;50.810;8.342;2023-02-16T00:06:16;0.30;99.90
5806;DHT22;2929;50.810;8.342;2023-02-16T00:08:44;0.30;99.90
5806;DHT22;2929;50.810;8.342;2023-02-16T00:11:17;0.20;99.90
5806;DHT22;2929;50.810;8.342;2023-02-16T00:14:04;0.20;99.90
5806;DHT22;2929;50.810;8.342;2023-02-16T00:16:33;0.20;99.90
5806;DHT22;2929;50.810;8.342;2023-02-16T00:19:00;0.20;99.90
5806;DHT22;2929;50.810;8.342;2023-02-16T00:21:28;0.20;99.90
5806;DHT22;2929;50.810;8.342;2023-02-16T00:23:55;0.20;99.90
5806;DHT22;2929;50.810;8.342;2023-02-16T00:26:24;0.30;99.90
5806;DHT22;2929;50.810;8.342;2023-02-16T00:28:54;0.30;99.90
5806;DHT22;2929;50.810;8.342;2023-02-16T00:31:24;0.30;99.90
5806;DHT22;2929;50.810;8.342;2023-02-16T00:33:52;0.30;99.90
5806;DHT22;2929;50.810;8.342;2023-02-16T00:36:20;0.30;99.90
5806;DHT22;2929;50.810;8.342;2023-02-16T00:38:48;0.20;99.90
5806;DHT22;2929;50.810;8.342;2023-02-16T00:41:17;0.20;99.90
5806;DHT22;2929;50.810;8.342;2023-02-16T00:43:58;0.20;99.90
5806;DHT22;2929;50.810;8.342;2023-02-16T00:46:25;0.20;99.90
5806;DHT22;2929;50.810;8.342;2023-02-16T00:48:52;0.10;99.90
5806;DHT22;2929;50.810;8.342;2023-02-16T00:51:19;0.20;99.90
5806;DHT22;2929;50.810;8.342;2023-02-16T00:53:47;0.20;99.90
5806;DHT22;2929;50.810;8.342;2023-02-16T00:56:17;0.20;99.90
5806;DHT22;2929;50.810;8.342;2023-02-16T00:58:46;0.10;99.90
5806;DHT22;2929;50.810;8.342;2023-02-16T01:01:16;0.20;99.90
5806;DHT22;2929;50.810;8.342;2023-02-16T01:03:46;0.20;99.90
5806;DHT22;2929;50.810;8.342;2023-02-16T01:06:13;0.20;99.90
5806;DHT22;2929;50.810;8.342;2023-02-16T01:09:11;0.10;99.90
5806;DHT22;2929;50.810;8.342;2023-02-16T01:11:56;0.10;99.90
5806;DHT22;2929;50.810;8.342;2023-02-16T01:14:24;0.10;99.90
5806;DHT22;2929;50.810;8.342;2023-02-16T01:16:52;0.10;99.90
5806;DHT22;2929;50.810;8.342;2023-02-16T01:19:19;0.10;99.90
5806;DHT22;2929;50.810;8.342;2023-02-16T01:21:46;0.10;99.90
5806;DHT22;2929;50.810;8.342;2023-02-16T01:24:14;0.20;99.90
5806;DHT22;2929;50.810;8.342;2023-02-16T01:26:43;0.20;99.90
5806;DHT22;2929;50.810;8.342;2023-02-16T01:29:16;0.20;99.90
5806;DHT22;2929;50.810;8.342;2023-02-16T01:31:44;0.20;99.90
5806;DHT22;2929;50.810;8.342;2023-02-16T01:34:12;0.20;99.90
5806;DHT22;2929;50.810;8.342;2023-02-16T01:36:44;0.10;99.90
5806;DHT22;2929;50.810;8.342;2023-02-16T01:39:14;0.10;99.90
5806;DHT22;2929;50.810;8.342;2023-02-16T01:41:53;0.20;99.90
5806;DHT22;2929;50.810;8.342;2023-02-16T01:44:27;0.20;99.90
5806;DHT22;2929;50.810;8.342;2023-02-16T01:47:00;0.20;99.90
5806;DHT22;2929;50.810;8.342;2023-02-16T01:49:30;0.20;99.90
5806;DHT22;2929;50.810;8.342;2023-02-16T01:52:02;0.20;99.90
5806;DHT22;2929;50.810;8.342;2023-02-16T01:54:35;0.20;99.90
5806;DHT22;2929;50.810;8.342;2023-02-16T01:57:12;0.10;99.90
5806;DHT22;2929;50.810;8.342;2023-02-16T02:00:04;0.10;99.90
5806;DHT22;2929;50.810;8.342;2023-02-16T02:02:42;0.00;99.90
5806;DHT22;2929;50.810;8.342;2023-02-16T02:05:25;0.00;99.90
5806;DHT22;2929;50.810;8.342;2023-02-16T02:08:16;0.00;99.90
5806;DHT22;2929;50.810;8.342;2023-02-16T02:10:56;0.00;99.90
5806;DHT22;2929;50.810;8.342;2023-02-16T02:13:31;0.10;99.90
5806;DHT22;2929;50.810;8.342;2023-02-16T02:15:59;0.10;99.90
5806;DHT22;2929;50.810;8.342;2023-02-16T02:18:26;0.10;99.90
5806;DHT22;2929;50.810;8.342;2023-02-16T02:21:11;0.10;99.90
5806;DHT22;2929;50.810;8.342;2023-02-16T02:24:11;0.00;99.90
5806;DHT22;2929;50.810;8.342;2023-02-16T02:32:52;-0.10;99.90
5806;DHT22;2929;50.810;8.342;2023-02-16T02:35:28;-0.10;99.90
5806;DHT22;2929;50.810;8.342;2023-02-16T02:38:08;0.00;99.90
5806;DHT22;2929;50.810;8.342;2023-02-16T02:40:45;0.00;99.90
5806;DHT22;2929;50.810;8.342;2023-02-16T02:43:18;0.00;99.90
5806;DHT22;2929;50.810;8.342;2023-02-16T02:45:51;0.00;99.90
5806;DHT22;2929;50.810;8.342;2023-02-16T02:48:20;0.00;99.90
5806;DHT22;2929;50.810;8.342;2023-02-16T02:50:50;0.10;99.90
5806;DHT22;2929;50.810;8.342;2023-02-16T02:53:39;0.10;99.90
5806;DHT22;2929;50.810;8.342;2023-02-16T02:56:09;0.00;99.90
5806;DHT22;2929;50.810;8.342;2023-02-16T02:58:59;0.00;99.90
5806;DHT22;2929;50.810;8.342;2023-02-16T03:01:50;0.00;99.90
5806;DHT22;2929;50.810;8.342;2023-02-16T03:04:23;0.00;99.90
5806;DHT22;2929;50.810;8.342;2023-02-16T03:06:53;0.00;99.90
5806;DHT22;2929;50.810;8.342;2023-02-16T03:09:21;0.00;99.90
5806;DHT22;2929;50.810;8.342;2023-02-16T03:11:49;0.00;99.90
5806;DHT22;2929;50.810;8.342;2023-02-16T03:14:40;0.00;99.90
5806;DHT22;2929;50.810;8.342;2023-02-16T03:17:12;0.00;99.90
5806;DHT22;2929;50.810;8.342;2023-02-16T03:19:58;0.00;99.90
5806;DHT22;2929;50.810;8.342;2023-02-16T03:22:45;0.00;99.90
5806;DHT22;2929;50.810;8.342;2023-02-16T03:25:31;0.10;99.90
5806;DHT22;2929;50.810;8.342;2023-02-16T03:28:18;0.10;99.90
5806;DHT22;2929;50.810;8.342;2023-02-16T03:31:05;0.00;99.90
5806;DHT22;2929;50.810;8.342;2023-02-16T03:33:34;0.10;99.90
5806;DHT22;2929;50.810;8.342;2023-02-16T03:36:02;0.10;99.90
5806;DHT22;2929;50.810;8.342;2023-02-16T03:38:30;0.10;99.90
5806;DHT22;2929;50.810;8.342;2023-02-16T03:40:59;0.10;99.90
5806;DHT22;2929;50.810;8.342;2023-02-16T03:43:27;0.10;99.90
5806;DHT22;2929;50.810;8.342;2023-02-16T03:45:54;0.10;99.90
5806;DHT22;2929;50.810;8.342;2023-02-16T03:48:21;0.10;99.90
5806;DHT22;2929;50.810;8.342;2023-02-16T03:50:50;0.10;99.90
5806;DHT22;2929;50.810;8.342;2023-02-16T03:53:17;0.00;99.90
5806;DHT22;2929;50.810;8.342;2023-02-16T03:55:45;-0.10;99.90
5806;DHT22;2929;50.810;8.342;2023-02-16T03:58:16;-0.10;99.90
5806;DHT22;2929;50.810;8.342;2023-02-16T04:00:44;-0.10;99.90
5806;DHT22;2929;50.810;8.342;2023-02-16T04:03:11;-0.10;99.90
5806;DHT22;2929;50.810;8.342;2023-02-16T04:05:39;0.00;99.90
5806;DHT22;2929;50.810;8.342;2023-02-16T04:08:08;0.00;99.90
5806;DHT22;2929;50.810;8.342;2023-02-16T04:10:37;0.00;99.90
5806;DHT22;2929;50.810;8.342;2023-02-16T04:13:04;-0.20;99.90
5806;DHT22;2929;50.810;8.342;2023-02-16T04:15:31;-0.20;99.90
5806;DHT22;2929;50.810;8.342;2023-02-16T04:17:58;-0.20;99.90
5806;DHT22;2929;50.810;8.342;2023-02-16T04:20:28;-0.30;99.90
5806;DHT22;2929;50.810;8.342;2023-02-16T04:22:55;-0.30;99.90
5806;DHT22;2929;50.810;8.342;2023-02-16T04:25:24;-0.30;99.90
5806;DHT22;2929;50.810;8.342;2023-02-16T04:27:52;-0.30;99.90
5806;DHT22;2929;50.810;8.342;2023-02-16T04:30:21;-0.40;99.90
5806;DHT22;2929;50.810;8.342;2023-02-16T04:32:48;-0.40;99.90
5806;DHT22;2929;50.810;8.342;2023-02-16T04:35:16;-0.40;99.90
5806;DHT22;2929;50.810;8.342;2023-02-16T04:37:44;-0.30;99.90
5806;DHT22;2929;50.810;8.342;2023-02-16T04:40:12;-0.30;99.90
5806;DHT22;2929;50.810;8.342;2023-02-16T04:42:42;-0.30;99.90
5806;DHT22;2929;50.810;8.342;2023-02-16T04:45:10;-0.30;99.90
5806;DHT22;2929;50.810;8.342;2023-02-16T04:47:38;-0.20;99.90
5806;DHT22;2929;50.810;8.342;2023-02-16T04:50:06;-0.20;99.90
5806;DHT22;2929;50.810;8.342;2023-02-16T04:52:34;-0.30;99.90
5806;DHT22;2929;50.810;8.342;2023-02-16T04:55:01;-0.30;99.90
5806;DHT22;2929;50.810;8.342;2023-02-16T04:57:28;-0.30;99.90
5806;DHT22;2929;50.810;8.342;2023-02-16T04:59:56;-0.20;99.90
5806;DHT22;2929;50.810;8.342;2023-02-16T05:02:23;-0.30;99.90
5806;DHT22;2929;50.810;8.342;2023-02-16T05:04:50;-0.30;99.90
5806;DHT22;2929;50.810;8.342;2023-02-16T05:07:18;-0.30;99.90
5806;DHT22;2929;50.810;8.342;2023-02-16T05:09:45;-0.30;99.90
5806;DHT22;2929;50.810;8.342;2023-02-16T05:12:12;-0.30;99.90
5806;DHT22;2929;50.810;8.342;2023-02-16T05:14:57;-0.30;99.90
5806;DHT22;2929;50.810;8.342;2023-02-16T05:17:25;-0.20;99.90
5806;DHT22;2929;50.810;8.342;2023-02-16T05:19:54;-0.10;99.90
5806;DHT22;2929;50.810;8.342;2023-02-16T05:22:21;-0.10;99.90
5806;DHT22;2929;50.810;8.342;2023-02-16T05:24:48;-0.10;99.90
5806;DHT22;2929;50.810;8.342;2023-02-16T05:27:18;-0.20;99.90
5806;DHT22;2929;50.810;8.342;2023-02-16T05:29:45;-0.10;99.90
5806;DHT22;2929;50.810;8.342;2023-02-16T05:32:14;-0.20;99.90
5806;DHT22;2929;50.810;8.342;2023-02-16T05:34:41;-0.20;99.90
5806;DHT22;2929;50.810;8.342;2023-02-16T05:37:09;-0.20;99.90
5806;DHT22;2929;50.810;8.342;2023-02-16T05:39:36;-0.20;99.90
5806;DHT22;2929;50.810;8.342;2023-02-16T05:42:04;-0.20;99.90
5806;DHT22;2929;50.810;8.342;2023-02-16T05:44:31;-0.10;99.90
5806;DHT22;2929;50.810;8.342;2023-02-16T05:46:58;-0.20;99.90
5806;DHT22;2929;50.810;8.342;2023-02-16T05:49:26;-0.20;99.90
5806;DHT22;2929;50.810;8.342;2023-02-16T05:51:53;-0.10;99.90
5806;DHT22;2929;50.810;8.342;2023-02-16T05:54:21;-0.20;99.90
5806;DHT22;2929;50.810;8.342;2023-02-16T05:56:50;-0.20;99.90
5806;DHT22;2929;50.810;8.342;2023-02-16T05:59:17;-0.20;99.90
5806;DHT22;2929;50.810;8.342;2023-02-16T06:01:44;-0.30;99.90
5806;DHT22;2929;50.810;8.342;2023-02-16T06:04:12;-0.20;99.90
5806;DHT22;2929;50.810;8.342;2023-02-16T06:06:42;-0.30;99.90
5806;DHT22;2929;50.810;8.342;2023-02-16T06:09:09;-0.30;99.90
5806;DHT22;2929;50.810;8.342;2023-02-16T06:11:37;-0.30;99.90
5806;DHT22;2929;50.810;8.342;2023-02-16T06:14:06;-0.20;99.90
5806;DHT22;2929;50.810;8.342;2023-02-16T06:16:35;-0.20;99.90
5806;DHT22;2929;50.810;8.342;2023-02-16T06:19:03;-0.20;99.90
5806;DHT22;2929;50.810;8.342;2023-02-16T06:21:31;-0.30;99.90
5806;DHT22;2929;50.810;8.342;2023-02-16T06:24:00;-0.30;99.90
5806;DHT22;2929;50.810;8.342;2023-02-16T06:26:27;-0.30;99.90
5806;DHT22;2929;50.810;8.342;2023-02-16T06:28:54;-0.30;99.90
5806;DHT22;2929;50.810;8.342;2023-02-16T06:31:22;-0.30;99.90
5806;DHT22;2929;50.810;8.342;2023-02-16T06:33:49;-0.30;99.90
5806;DHT22;2929;50.810;8.342;2023-02-16T06:36:17;-0.30;99.90
5806;DHT22;2929;50.810;8.342;2023-02-16T06:38:45;-0.20;99.90
5806;DHT22;2929;50.810;8.342;2023-02-16T06:41:14;-0.30;99.90
5806;DHT22;2929;50.810;8.342;2023-02-16T06:43:57;-0.30;99.90
5806;DHT22;2929;50.810;8.342;2023-02-16T06:46:24;-0.40;99.90
5806;DHT22;2929;50.810;8.342;2023-02-16T06:48:51;-0.40;99.90
5806;DHT22;2929;50.810;8.342;2023-02-16T06:51:19;-0.30;99.90
5806;DHT22;2929;50.810;8.342;2023-02-16T06:53:46;-0.40;99.90
5806;DHT22;2929;50.810;8.342;2023-02-16T06:56:15;-0.40;99.90
5806;DHT22;2929;50.810;8.342;2023-02-16T06:58:42;-0.20;99.90
5806;DHT22;2929;50.810;8.342;2023-02-16T07:01:09;-0.20;99.90
5806;DHT22;2929;50.810;8.342;2023-02-16T07:03:37;-0.20;99.90
5806;DHT22;2929;50.810;8.342;2023-02-16T07:06:05;-0.20;99.90
5806;DHT22;2929;50.810;8.342;2023-02-16T07:08:33;-0.20;99.90
5806;DHT22;2929;50.810;8.342;2023-02-16T07:11:00;-0.20;99.90
5806;DHT22;2929;50.810;8.342;2023-02-16T07:13:28;-0.20;99.90
5806;DHT22;2929;50.810;8.342;2023-02-16T07:15:55;-0.20;99.90
5806;DHT22;2929;50.810;8.342;2023-02-16T07:18:22;-0.20;99.90
5806;DHT22;2929;50.810;8.342;2023-02-16T07:20:49;-0.10;99.90
5806;DHT22;2929;50.810;8.342;2023-02-16T07:23:16;-0.20;99.90
5806;DHT22;2929;50.810;8.342;2023-02-16T07:25:43;-0.20;99.90
5806;DHT22;2929;50.810;8.342;2023-02-16T07:28:11;-0.10;99.90
5806;DHT22;2929;50.810;8.342;2023-02-16T07:34:29;0.00;99.90
5806;DHT22;2929;50.810;8.342;2023-02-16T07:36:57;0.00;99.90
5806;DHT22;2929;50.810;8.342;2023-02-16T07:39:24;0.00;99.90
5806;DHT22;2929;50.810;8.342;2023-02-16T07:41:53;-0.10;99.90
5806;DHT22;2929;50.810;8.342;2023-02-16T07:44:24;-0.10;99.90
5806;DHT22;2929;50.810;8.342;2023-02-16T07:46:51;0.00;99.90
5806;DHT22;2929;50.810;8.342;2023-02-16T07:49:18;0.00;99.90
5806;DHT22;2929;50.810;8.342;2023-02-16T07:51:47;0.00;99.90
5806;DHT22;2929;50.810;8.342;2023-02-16T07:54:14;-0.20;99.90
5806;DHT22;2929;50.810;8.342;2023-02-16T07:56:41;-0.10;99.90
5806;DHT22;2929;50.810;8.342;2023-02-16T07:59:08;-0.10;99.90
5806;DHT22;2929;50.810;8.342;2023-02-16T08:01:36;0.00;99.90
5806;DHT22;2929;50.810;8.342;2023-02-16T08:04:04;0.10;99.90
5806;DHT22;2929;50.810;8.342;2023-02-16T08:06:33;0.10;99.90
5806;DHT22;2929;50.810;8.342;2023-02-16T08:09:01;0.00;99.90
5806;DHT22;2929;50.810;8.342;2023-02-16T08:11:29;0.10;99.90
5806;DHT22;2929;50.810;8.342;2023-02-16T08:13:57;0.10;99.90
5806;DHT22;2929;50.810;8.342;2023-02-16T08:16:26;0.10;99.90
5806;DHT22;2929;50.810;8.342;2023-02-16T08:18:55;0.10;99.90
5806;DHT22;2929;50.810;8.342;2023-02-16T08:21:25;0.10;99.90
5806;DHT22;2929;50.810;8.342;2023-02-16T08:23:55;0.20;99.90
5806;DHT22;2929;50.810;8.342;2023-02-16T08:26:25;0.30;99.90
5806;DHT22;2929;50.810;8.342;2023-02-16T08:28:55;0.30;99.90
5806;DHT22;2929;50.810;8.342;2023-02-16T08:31:25;0.40;99.90
5806;DHT22;2929;50.810;8.342;2023-02-16T08:33:53;0.40;99.90
5806;DHT22;2929;50.810;8.342;2023-02-16T08:36:23;0.40;99.90
5806;DHT22;2929;50.810;8.342;2023-02-16T08:38:52;0.50;99.90
5806;DHT22;2929;50.810;8.342;2023-02-16T08:41:21;0.50;99.90
5806;DHT22;2929;50.810;8.342;2023-02-16T08:43:49;0.50;99.90
5806;DHT22;2929;50.810;8.342;2023-02-16T08:46:17;0.50;99.90
5806;DHT22;2929;50.810;8.342;2023-02-16T08:48:44;0.60;99.90
5806;DHT22;2929;50.810;8.342;2023-02-16T08:51:16;0.50;99.90
5806;DHT22;2929;50.810;8.342;2023-02-16T08:53:43;0.60;99.90
5806;DHT22;2929;50.810;8.342;2023-02-16T08:56:12;0.70;99.90
5806;DHT22;2929;50.810;8.342;2023-02-16T08:58:39;0.90;99.90
5806;DHT22;2929;50.810;8.342;2023-02-16T09:01:09;1.00;99.90
5806;DHT22;2929;50.810;8.342;2023-02-16T09:03:37;1.00;99.90
5806;DHT22;2929;50.810;8.342;2023-02-16T09:06:07;1.10;99.90
5806;DHT22;2929;50.810;8.342;2023-02-16T09:08:35;1.00;99.90
5806;DHT22;2929;50.810;8.342;2023-02-16T09:11:03;1.10;99.90
5806;DHT22;2929;50.810;8.342;2023-02-16T09:13:32;1.10;99.90
5806;DHT22;2929;50.810;8.342;2023-02-16T09:16:04;1.10;99.90
5806;DHT22;2929;50.810;8.342;2023-02-16T09:18:33;1.10;99.90
5806;DHT22;2929;50.810;8.342;2023-02-16T09:21:03;1.10;99.90
5806;DHT22;2929;50.810;8.342;2023-02-16T09:23:31;1.10;99.90
5806;DHT22;2929;50.810;8.342;2023-02-16T09:26:00;1.20;99.90
5806;DHT22;2929;50.810;8.342;2023-02-16T09:28:27;1.20;99.90
5806;DHT22;2929;50.810;8.342;2023-02-16T09:30:55;1.30;99.90
5806;DHT22;2929;50.810;8.342;2023-02-16T09:33:23;1.40;99.90
5806;DHT22;2929;50.810;8.342;2023-02-16T09:35:52;1.40;99.90
5806;DHT22;2929;50.810;8.342;2023-02-16T09:38:19;1.50;99.90
5806;DHT22;2929;50.810;8.342;2023-02-16T09:40:55;1.50;99.90
5806;DHT22;2929;50.810;8.342;2023-02-16T09:43:31;1.50;99.90
5806;DHT22;2929;50.810;8.342;2023-02-16T09:46:02;1.50;99.90
5806;DHT22;2929;50.810;8.342;2023-02-16T09:48:35;1.60;99.90
5806;DHT22;2929;50.810;8.342;2023-02-16T09:51:05;1.70;99.90
5806;DHT22;2929;50.810;8.342;2023-02-16T09:53:35;1.80;99.90
5806;DHT22;2929;50.810;8.342;2023-02-16T09:56:12;1.90;99.90
5806;DHT22;2929;50.810;8.342;2023-02-16T09:58:45;1.90;99.90
5806;DHT22;2929;50.810;8.342;2023-02-16T10:01:19;2.00;99.90
5806;DHT22;2929;50.810;8.342;2023-02-16T10:03:53;1.90;99.90
5806;DHT22;2929;50.810;8.342;2023-02-16T10:06:33;2.00;99.90
5806;DHT22;2929;50.810;8.342;2023-02-16T10:09:05;2.10;99.90
5806;DHT22;2929;50.810;8.342;2023-02-16T10:11:35;2.20;99.90
5806;DHT22;2929;50.810;8.342;2023-02-16T10:14:10;2.40;99.90
5806;DHT22;2929;50.810;8.342;2023-02-16T10:16:42;2.50;99.90
5806;DHT22;2929;50.810;8.342;2023-02-16T10:19:17;2.50;99.90
5806;DHT22;2929;50.810;8.342;2023-02-16T10:21:51;2.50;99.90
5806;DHT22;2929;50.810;8.342;2023-02-16T10:24:19;2.60;99.90
5806;DHT22;2929;50.810;8.342;2023-02-16T10:26:49;2.60;99.90
5806;DHT22;2929;50.810;8.342;2023-02-16T10:29:21;2.70;99.90
5806;DHT22;2929;50.810;8.342;2023-02-16T10:31:57;2.80;99.90
5806;DHT22;2929;50.810;8.342;2023-02-16T10:34:38;2.80;99.90
5806;DHT22;2929;50.810;8.342;2023-02-16T10:37:18;2.90;99.90
5806;DHT22;2929;50.810;8.342;2023-02-16T10:39:53;2.80;99.90
5806;DHT22;2929;50.810;8.342;2023-02-16T10:42:30;2.70;99.90
5806;DHT22;2929;50.810;8.342;2023-02-16T10:45:05;2.70;99.90
5806;DHT22;2929;50.810;8.342;2023-02-16T10:47:40;2.90;99.90
5806;DHT22;2929;50.810;8.342;2023-02-16T10:50:17;2.90;99.90
5806;DHT22;2929;50.810;8.342;2023-02-16T10:52:47;2.90;99.90
5806;DHT22;2929;50.810;8.342;2023-02-16T10:55:15;2.80;99.90
5806;DHT22;2929;50.810;8.342;2023-02-16T10:57:42;2.90;99.90
5806;DHT22;2929;50.810;8.342;2023-02-16T11:00:12;3.00;99.90
5806;DHT22;2929;50.810;8.342;2023-02-16T11:02:43;2.90;99.90
5806;DHT22;2929;50.810;8.342;2023-02-16T11:05:31;3.00;99.90
5806;DHT22;2929;50.810;8.342;2023-02-16T11:08:00;3.10;99.90
5806;DHT22;2929;50.810;8.342;2023-02-16T11:10:43;3.30;99.90
5806;DHT22;2929;50.810;8.342;2023-02-16T11:13:28;3.50;99.90
5806;DHT22;2929;50.810;8.342;2023-02-16T11:16:00;3.80;99.90
5806;DHT22;2929;50.810;8.342;2023-02-16T11:18:32;3.60;99.90
5806;DHT22;2929;50.810;8.342;2023-02-16T11:21:01;3.70;99.90
5806;DHT22;2929;50.810;8.342;2023-02-16T11:23:31;3.80;99.90
5806;DHT22;2929;50.810;8.342;2023-02-16T11:26:01;3.90;99.90
5806;DHT22;2929;50.810;8.342;2023-02-16T11:28:31;3.90;99.90
5806;DHT22;2929;50.810;8.342;2023-02-16T11:31:14;4.10;99.90
5806;DHT22;2929;50.810;8.342;2023-02-16T11:33:54;4.00;99.90
5806;DHT22;2929;50.810;8.342;2023-02-16T11:36:27;4.20;99.90
5806;DHT22;2929;50.810;8.342;2023-02-16T11:38:59;4.50;99.90
5806;DHT22;2929;50.810;8.342;2023-02-16T11:41:27;4.70;99.90
5806;DHT22;2929;50.810;8.342;2023-02-16T11:43:58;4.70;99.90
5806;DHT22;2929;50.810;8.342;2023-02-16T11:46:26;4.70;99.90
5806;DHT22;2929;50.810;8.342;2023-02-16T11:48:53;4.70;99.90
5806;DHT22;2929;50.810;8.342;2023-02-16T11:51:32;5.20;99.90
5806;DHT22;2929;50.810;8.342;2023-02-16T11:54:03;5.50;99.90
5806;DHT22;2929;50.810;8.342;2023-02-16T11:56:33;5.60;99.90
5806;DHT22;2929;50.810;8.342;2023-02-16T11:59:07;5.70;99.90
5806;DHT22;2929;50.810;8.342;2023-02-16T12:01:53;5.90;99.90
5806;DHT22;2929;50.810;8.342;2023-02-16T12:04:33;5.70;99.90
5806;DHT22;2929;50.810;8.342;2023-02-16T12:07:10;5.50;99.90
5806;DHT22;2929;50.810;8.342;2023-02-16T12:09:48;5.40;99.90
5806;DHT22;2929;50.810;8.342;2023-02-16T12:12:28;5.40;99.90
5806;DHT22;2929;50.810;8.342;2023-02-16T12:15:02;5.40;99.90
5806;DHT22;2929;50.810;8.342;2023-02-16T12:17:43;5.30;99.90
5806;DHT22;2929;50.810;8.342;2023-02-16T12:20:24;5.20;99.90
5806;DHT22;2929;50.810;8.342;2023-02-16T12:23:06;5.00;99.90
5806;DHT22;2929;50.810;8.342;2023-02-16T12:25:42;5.00;99.90
5806;DHT22;2929;50.810;8.342;2023-02-16T12:28:16;4.90;99.90
5806;DHT22;2929;50.810;8.342;2023-02-16T12:30:54;4.90;99.90
5806;DHT22;2929;50.810;8.342;2023-02-16T12:33:37;4.90;99.90
5806;DHT22;2929;50.810;8.342;2023-02-16T12:36:40;4.90;99.90
5806;DHT22;2929;50.810;8.342;2023-02-16T12:39:16;5.00;99.90
5806;DHT22;2929;50.810;8.342;2023-02-16T12:41:55;4.90;99.90
5806;DHT22;2929;50.810;8.342;2023-02-16T12:44:31;4.90;99.90
5806;DHT22;2929;50.810;8.342;2023-02-16T12:47:01;5.00;99.90
5806;DHT22;2929;50.810;8.342;2023-02-16T12:49:33;5.00;99.90
5806;DHT22;2929;50.810;8.342;2023-02-16T12:52:05;5.10;99.90
5806;DHT22;2929;50.810;8.342;2023-02-16T12:54:38;5.10;99.90
5806;DHT22;2929;50.810;8.342;2023-02-16T12:57:11;5.20;99.90
5806;DHT22;2929;50.810;8.342;2023-02-16T12:59:43;5.20;99.90
5806;DHT22;2929;50.810;8.342;2023-02-16T13:02:17;5.20;99.90
5806;DHT22;2929;50.810;8.342;2023-02-16T13:04:49;5.20;99.90
5806;DHT22;2929;50.810;8.342;2023-02-16T13:07:23;5.20;99.90
5806;DHT22;2929;50.810;8.342;2023-02-16T13:09:58;5.20;99.90
5806;DHT22;2929;50.810;8.342;2023-02-16T13:12:31;5.20;99.90
5806;DHT22;2929;50.810;8.342;2023-02-16T13:15:10;5.30;99.90
5806;DHT22;2929;50.810;8.342;2023-02-16T13:17:42;5.40;99.90
5806;DHT22;2929;50.810;8.342;2023-02-16T13:20:12;5.40;99.90
5806;DHT22;2929;50.810;8.342;2023-02-16T13:25:57;5.30;99.90
5806;DHT22;2929;50.810;8.342;2023-02-16T13:28:40;5.30;99.90
5806;DHT22;2929;50.810;8.342;2023-02-16T13:31:20;5.20;99.90
5806;DHT22;2929;50.810;8.342;2023-02-16T13:34:06;5.20;99.90
5806;DHT22;2929;50.810;8.342;2023-02-16T13:36:51;5.20;99.90
5806;DHT22;2929;50.810;8.342;2023-02-16T13:39:38;5.20;99.90
5806;DHT22;2929;50.810;8.342;2023-02-16T13:42:28;5.20;99.90
5806;DHT22;2929;50.810;8.342;2023-02-16T13:45:01;5.20;99.90
5806;DHT22;2929;50.810;8.342;2023-02-16T13:47:33;5.30;99.90
5806;DHT22;2929;50.810;8.342;2023-02-16T13:50:02;5.30;99.90
5806;DHT22;2929;50.810;8.342;2023-02-16T13:52:33;5.30;99.90
5806;DHT22;2929;50.810;8.342;2023-02-16T13:55:05;5.30;99.90
5806;DHT22;2929;50.810;8.342;2023-02-16T13:58:04;5.30;99.90
5806;DHT22;2929;50.810;8.342;2023-02-16T14:00:35;5.30;99.90
5806;DHT22;2929;50.810;8.342;2023-02-16T14:03:08;5.40;99.90
5806;DHT22;2929;50.810;8.342;2023-02-16T14:05:37;5.40;99.90
5806;DHT22;2929;50.810;8.342;2023-02-16T14:11:03;5.50;99.90
5806;DHT22;2929;50.810;8.342;2023-02-16T14:13:32;5.60;99.90
5806;DHT22;2929;50.810;8.342;2023-02-16T14:16:05;5.60;99.90
5806;DHT22;2929;50.810;8.342;2023-02-16T14:18:39;5.70;99.90
5806;DHT22;2929;50.810;8.342;2023-02-16T14:21:17;5.60;99.90
5806;DHT22;2929;50.810;8.342;2023-02-16T14:23:53;5.60;99.90
5806;DHT22;2929;50.810;8.342;2023-02-16T14:26:21;5.60;99.90
5806;DHT22;2929;50.810;8.342;2023-02-16T14:29:00;5.70;99.90
5806;DHT22;2929;50.810;8.342;2023-02-16T14:31:30;5.70;99.90
5806;DHT22;2929;50.810;8.342;2023-02-16T14:34:02;5.70;99.90
5806;DHT22;2929;50.810;8.342;2023-02-16T14:36:31;5.60;99.90
5806;DHT22;2929;50.810;8.342;2023-02-16T14:38:59;5.60;99.90
5806;DHT22;2929;50.810;8.342;2023-02-16T14:41:28;5.50;99.90
5806;DHT22;2929;50.810;8.342;2023-02-16T14:44:28;5.50;99.90
5806;DHT22;2929;50.810;8.342;2023-02-16T14:47:10;5.40;99.90
5806;DHT22;2929;50.810;8.342;2023-02-16T14:50:00;5.40;99.90
5806;DHT22;2929;50.810;8.342;2023-02-16T14:52:59;5.50;99.90
5806;DHT22;2929;50.810;8.342;2023-02-16T14:55:55;5.50;99.90
5806;DHT22;2929;50.810;8.342;2023-02-16T14:58:29;5.60;99.90
5806;DHT22;2929;50.810;8.342;2023-02-16T15:01:03;5.60;99.90
5806;DHT22;2929;50.810;8.342;2023-02-16T15:03:41;5.60;99.90
5806;DHT22;2929;50.810;8.342;2023-02-16T15:06:18;5.70;99.90
5806;DHT22;2929;50.810;8.342;2023-02-16T15:08:51;5.60;99.90
5806;DHT22;2929;50.810;8.342;2023-02-16T15:11:30;5.60;99.90
5806;DHT22;2929;50.810;8.342;2023-02-16T15:14:04;5.70;99.90
5806;DHT22;2929;50.810;8.342;2023-02-16T15:16:33;5.70;99.90
5806;DHT22;2929;50.810;8.342;2023-02-16T15:19:07;5.70;99.90
5806;DHT22;2929;50.810;8.342;2023-02-16T15:21:35;5.70;99.90
5806;DHT22;2929;50.810;8.342;2023-02-16T15:24:02;5.60;99.90
5806;DHT22;2929;50.810;8.342;2023-02-16T15:26:32;5.90;99.90
5806;DHT22;2929;50.810;8.342;2023-02-16T15:29:03;6.40;99.90
5806;DHT22;2929;50.810;8.342;2023-02-16T15:31:38;6.80;99.90
5806;DHT22;2929;50.810;8.342;2023-02-16T15:34:10;6.80;99.90
5806;DHT22;2929;50.810;8.342;2023-02-16T15:36:40;7.30;99.90
5806;DHT22;2929;50.810;8.342;2023-02-16T15:39:12;7.30;99.90
5806;DHT22;2929;50.810;8.342;2023-02-16T15:41:43;7.00;99.90
5806;DHT22;2929;50.810;8.342;2023-02-16T15:44:27;6.90;99.90
5806;DHT22;2929;50.810;8.342;2023-02-16T15:47:05;6.50;99.90
5806;DHT22;2929;50.810;8.342;2023-02-16T15:49:34;6.00;99.90
5806;DHT22;2929;50.810;8.342;2023-02-16T15:52:05;5.80;99.90
5806;DHT22;2929;50.810;8.342;2023-02-16T15:54:35;5.50;99.90
5806;DHT22;2929;50.810;8.342;2023-02-16T15:57:04;5.40;99.90
5806;DHT22;2929;50.810;8.342;2023-02-16T15:59:40;5.40;99.90
5806;DHT22;2929;50.810;8.342;2023-02-16T16:02:13;5.30;99.90
5806;DHT22;2929;50.810;8.342;2023-02-16T16:04:44;5.20;99.90
5806;DHT22;2929;50.810;8.342;2023-02-16T16:07:13;5.30;99.90
5806;DHT22;2929;50.810;8.342;2023-02-16T16:09:42;5.20;99.90
5806;DHT22;2929;50.810;8.342;2023-02-16T16:12:12;5.20;99.90
5806;DHT22;2929;50.810;8.342;2023-02-16T16:14:43;5.10;99.90
5806;DHT22;2929;50.810;8.342;2023-02-16T16:17:13;5.00;99.90
5806;DHT22;2929;50.810;8.342;2023-02-16T16:19:42;5.10;99.90
5806;DHT22;2929;50.810;8.342;2023-02-16T16:22:30;5.10;99.90
5806;DHT22;2929;50.810;8.342;2023-02-16T16:25:00;5.00;99.90
5806;DHT22;2929;50.810;8.342;2023-02-16T16:27:29;5.00;99.90
5806;DHT22;2929;50.810;8.342;2023-02-16T16:30:25;5.00;99.90
5806;DHT22;2929;50.810;8.342;2023-02-16T16:33:00;5.00;99.90
5806;DHT22;2929;50.810;8.342;2023-02-16T16:35:37;4.90;99.90
5806;DHT22;2929;50.810;8.342;2023-02-16T16:38:06;4.90;99.90
5806;DHT22;2929;50.810;8.342;2023-02-16T16:40:36;4.70;99.90
5806;DHT22;2929;50.810;8.342;2023-02-16T16:43:14;4.70;99.90
5806;DHT22;2929;50.810;8.342;2023-02-16T16:45:43;4.70;99.90
5806;DHT22;2929;50.810;8.342;2023-02-16T16:48:17;4.60;99.90
5806;DHT22;2929;50.810;8.342;2023-02-16T16:50:47;4.50;99.90
5806;DHT22;2929;50.810;8.342;2023-02-16T16:53:43;4.50;99.90
5806;DHT22;2929;50.810;8.342;2023-02-16T16:56:12;4.40;99.90
5806;DHT22;2929;50.810;8.342;2023-02-16T16:58:39;4.30;99.90
5806;DHT22;2929;50.810;8.342;2023-02-16T17:01:06;4.30;99.90
5806;DHT22;2929;50.810;8.342;2023-02-16T17:03:35;4.10;99.90